sensor_id;sensor_type;location;lat;lon;timestamp;temperature;humidity
38183;DHT22;23991;52.430;10.586;2022-12-07T00:01:40;3.40;89.10
38183;DHT22;23991;52.430;10.586;2022-12-07T00:04:09;3.40;89.20
38183;DHT22;23991;52.430;10.586;2022-12-07T00:06:40;3.30;89.20
38183;DHT22;23991;52.430;10.586;2022-12-07T00:09:08;3.30;89.30
38183;DHT22;23991;52.430;10.586;2022-12-07T00:11:35;3.40;89.30
38183;DHT22;23991;52.430;10.586;2022-12-07T00:14:04;3.40;89.40
38183;DHT22;23991;52.430;10.586;2022-12-07T00:16:32;3.40;89.40
38183;DHT22;23991;52.430;10.586;2022-12-07T00:19:01;3.40;89.50
38183;DHT22;23991;52.430;10.586;2022-12-07T00:21:37;3.40;89.60
38183;DHT22;23991;52.430;10.586;2022-12-07T00:24:20;3.40;89.70
38183;DHT22;23991;52.430;10.586;2022-12-07T00:26:46;3.40;89.70
38183;DHT22;23991;52.430;10.586;2022-12-07T00:29:18;3.40;89.80
38183;DHT22;23991;52.430;10.586;2022-12-07T00:31:50;3.40;89.80
38183;DHT22;23991;52.430;10.586;2022-12-07T00:34:22;3.40;89.90
38183;DHT22;23991;52.430;10.586;2022-12-07T00:36:49;3.40;89.90
38183;DHT22;23991;52.430;10.586;2022-12-07T00:39:17;3.40;89.90
38183;DHT22;23991;52.430;10.586;2022-12-07T00:41:43;3.40;90.00
38183;DHT22;23991;52.430;10.586;2022-12-07T00:47:00;3.40;90.20
38183;DHT22;23991;52.430;10.586;2022-12-07T00:49:31;3.40;90.20
38183;DHT22;23991;52.430;10.586;2022-12-07T00:51:57;3.50;90.30
38183;DHT22;23991;52.430;10.586;2022-12-07T00:54:23;3.50;90.40
38183;DHT22;23991;52.430;10.586;2022-12-07T00:56:48;3.50;90.50
38183;DHT22;23991;52.430;10.586;2022-12-07T00:59:18;3.50;90.50
38183;DHT22;23991;52.430;10.586;2022-12-07T01:01:43;3.50;90.60
38183;DHT22;23991;52.430;10.586;2022-12-07T01:04:09;3.50;90.70
38183;DHT22;23991;52.430;10.586;2022-12-07T01:06:35;3.50;90.80
38183;DHT22;23991;52.430;10.586;2022-12-07T01:09:01;3.60;90.90
38183;DHT22;23991;52.430;10.586;2022-12-07T01:11:28;3.60;91.00
38183;DHT22;23991;52.430;10.586;2022-12-07T01:13:55;3.60;91.00
38183;DHT22;23991;52.430;10.586;2022-12-07T01:16:24;3.60;91.10
38183;DHT22;23991;52.430;10.586;2022-12-07T01:18:51;3.60;91.10
38183;DHT22;23991;52.430;10.586;2022-12-07T01:21:23;3.60;91.20
38183;DHT22;23991;52.430;10.586;2022-12-07T01:23:49;3.60;91.30
38183;DHT22;23991;52.430;10.586;2022-12-07T01:26:20;3.60;91.40
38183;DHT22;23991;52.430;10.586;2022-12-07T01:28:46;3.60;91.50
38183;DHT22;23991;52.430;10.586;2022-12-07T01:31:18;3.60;91.60
38183;DHT22;23991;52.430;10.586;2022-12-07T01:33:50;3.70;91.60
38183;DHT22;23991;52.430;10.586;2022-12-07T01:36:24;3.70;91.70
38183;DHT22;23991;52.430;10.586;2022-12-07T01:38:54;3.70;91.80
38183;DHT22;23991;52.430;10.586;2022-12-07T01:41:22;3.70;91.90
38183;DHT22;23991;52.430;10.586;2022-12-07T01:46:58;3.60;91.90
38183;DHT22;23991;52.430;10.586;2022-12-07T01:49:40;3.70;92.00
38183;DHT22;23991;52.430;10.586;2022-12-07T01:54:45;3.70;92.20
38183;DHT22;23991;52.430;10.586;2022-12-07T01:57:12;3.70;92.20
38183;DHT22;23991;52.430;10.586;2022-12-07T01:59:39;3.80;92.30
38183;DHT22;23991;52.430;10.586;2022-12-07T02:02:09;3.80;92.30
38183;DHT22;23991;52.430;10.586;2022-12-07T02:04:36;3.80;92.40
38183;DHT22;23991;52.430;10.586;2022-12-07T02:07:03;3.80;92.40
38183;DHT22;23991;52.430;10.586;2022-12-07T02:09:30;3.80;92.40
38183;DHT22;23991;52.430;10.586;2022-12-07T02:11:55;3.80;92.50
38183;DHT22;23991;52.430;10.586;2022-12-07T02:14:21;3.80;92.50
38183;DHT22;23991;52.430;10.586;2022-12-07T02:17:11;3.80;92.50
38183;DHT22;23991;52.430;10.586;2022-12-07T02:20:00;3.80;92.60
38183;DHT22;23991;52.430;10.586;2022-12-07T02:28:37;3.90;92.60
38183;DHT22;23991;52.430;10.586;2022-12-07T02:31:11;3.90;92.70
38183;DHT22;23991;52.430;10.586;2022-12-07T02:33:45;3.90;92.70
38183;DHT22;23991;52.430;10.586;2022-12-07T02:36:23;3.90;92.70
38183;DHT22;23991;52.430;10.586;2022-12-07T02:39:06;3.90;92.70
38183;DHT22;23991;52.430;10.586;2022-12-07T02:41:33;3.90;92.70
38183;DHT22;23991;52.430;10.586;2022-12-07T02:44:07;3.90;92.80
38183;DHT22;23991;52.430;10.586;2022-12-07T02:46:37;3.90;92.80
38183;DHT22;23991;52.430;10.586;2022-12-07T02:49:05;3.90;92.80
38183;DHT22;23991;52.430;10.586;2022-12-07T02:51:32;3.90;92.80
38183;DHT22;23991;52.430;10.586;2022-12-07T02:53:58;3.90;92.80
38183;DHT22;23991;52.430;10.586;2022-12-07T02:56:48;3.90;92.90
38183;DHT22;23991;52.430;10.586;2022-12-07T03:13:06;4.00;92.80
38183;DHT22;23991;52.430;10.586;2022-12-07T03:18:22;4.00;92.80
38183;DHT22;23991;52.430;10.586;2022-12-07T03:20:50;4.00;92.80
38183;DHT22;23991;52.430;10.586;2022-12-07T03:23:18;4.00;92.80
38183;DHT22;23991;52.430;10.586;2022-12-07T03:25:47;4.10;92.80
38183;DHT22;23991;52.430;10.586;2022-12-07T03:28:17;4.00;92.70
38183;DHT22;23991;52.430;10.586;2022-12-07T03:30:45;4.00;92.70
38183;DHT22;23991;52.430;10.586;2022-12-07T03:33:18;4.10;92.70
38183;DHT22;23991;52.430;10.586;2022-12-07T03:35:56;4.00;92.70
38183;DHT22;23991;52.430;10.586;2022-12-07T03:38:27;4.10;92.60
38183;DHT22;23991;52.430;10.586;2022-12-07T03:41:01;4.10;92.60
38183;DHT22;23991;52.430;10.586;2022-12-07T03:43:29;4.10;92.50
38183;DHT22;23991;52.430;10.586;2022-12-07T03:51:51;4.10;92.40
38183;DHT22;23991;52.430;10.586;2022-12-07T03:54:28;4.20;92.30
38183;DHT22;23991;52.430;10.586;2022-12-07T03:56:56;4.10;92.30
38183;DHT22;23991;52.430;10.586;2022-12-07T03:59:23;4.10;92.20
38183;DHT22;23991;52.430;10.586;2022-12-07T04:01:57;4.10;92.20
38183;DHT22;23991;52.430;10.586;2022-12-07T04:04:24;4.10;92.10
38183;DHT22;23991;52.430;10.586;2022-12-07T04:06:50;4.10;92.00
38183;DHT22;23991;52.430;10.586;2022-12-07T04:09:17;4.10;92.00
38183;DHT22;23991;52.430;10.586;2022-12-07T04:11:43;4.10;91.90
38183;DHT22;23991;52.430;10.586;2022-12-07T04:14:09;4.10;91.80
38183;DHT22;23991;52.430;10.586;2022-12-07T04:19:11;4.20;91.70
38183;DHT22;23991;52.430;10.586;2022-12-07T04:21:37;4.20;91.60
38183;DHT22;23991;52.430;10.586;2022-12-07T04:24:03;4.10;91.60
38183;DHT22;23991;52.430;10.586;2022-12-07T04:26:29;4.20;91.50
38183;DHT22;23991;52.430;10.586;2022-12-07T04:28:55;4.20;91.50
38183;DHT22;23991;52.430;10.586;2022-12-07T04:31:23;4.10;91.50
38183;DHT22;23991;52.430;10.586;2022-12-07T04:33:49;4.20;91.40
38183;DHT22;23991;52.430;10.586;2022-12-07T04:36:15;4.10;91.40
38183;DHT22;23991;52.430;10.586;2022-12-07T04:38:42;4.10;91.40
38183;DHT22;23991;52.430;10.586;2022-12-07T04:41:11;4.10;91.40
38183;DHT22;23991;52.430;10.586;2022-12-07T04:43:36;4.10;91.20
38183;DHT22;23991;52.430;10.586;2022-12-07T04:46:02;4.20;91.20
38183;DHT22;23991;52.430;10.586;2022-12-07T04:48:29;4.10;91.20
38183;DHT22;23991;52.430;10.586;2022-12-07T04:50:55;4.10;91.20
38183;DHT22;23991;52.430;10.586;2022-12-07T04:53:32;4.20;91.10
38183;DHT22;23991;52.430;10.586;2022-12-07T04:56:01;4.10;91.10
38183;DHT22;23991;52.430;10.586;2022-12-07T04:58:27;4.10;91.00
38183;DHT22;23991;52.430;10.586;2022-12-07T05:00:54;4.10;90.90
38183;DHT22;23991;52.430;10.586;2022-12-07T05:03:20;4.10;90.80
38183;DHT22;23991;52.430;10.586;2022-12-07T05:05:46;4.10;90.80
38183;DHT22;23991;52.430;10.586;2022-12-07T05:08:11;4.10;90.80
38183;DHT22;23991;52.430;10.586;2022-12-07T05:10:37;4.10;90.80
38183;DHT22;23991;52.430;10.586;2022-12-07T05:13:02;4.10;90.80
38183;DHT22;23991;52.430;10.586;2022-12-07T05:15:28;4.10;90.70
38183;DHT22;23991;52.430;10.586;2022-12-07T05:17:55;4.10;90.70
38183;DHT22;23991;52.430;10.586;2022-12-07T05:20:21;4.10;90.70
38183;DHT22;23991;52.430;10.586;2022-12-07T05:22:46;4.10;90.60
38183;DHT22;23991;52.430;10.586;2022-12-07T05:25:12;4.10;90.60
38183;DHT22;23991;52.430;10.586;2022-12-07T05:27:38;4.00;90.60
38183;DHT22;23991;52.430;10.586;2022-12-07T05:30:04;4.10;90.60
38183;DHT22;23991;52.430;10.586;2022-12-07T05:32:33;4.20;90.60
38183;DHT22;23991;52.430;10.586;2022-12-07T05:34:58;4.20;90.50
38183;DHT22;23991;52.430;10.586;2022-12-07T05:37:24;4.10;90.40
38183;DHT22;23991;52.430;10.586;2022-12-07T05:39:50;4.10;90.30
38183;DHT22;23991;52.430;10.586;2022-12-07T05:42:15;4.10;90.20
38183;DHT22;23991;52.430;10.586;2022-12-07T05:44:44;4.10;90.20
38183;DHT22;23991;52.430;10.586;2022-12-07T05:47:11;4.10;90.20
38183;DHT22;23991;52.430;10.586;2022-12-07T05:49:36;4.10;90.20
38183;DHT22;23991;52.430;10.586;2022-12-07T05:52:05;4.00;90.20
38183;DHT22;23991;52.430;10.586;2022-12-07T05:54:32;4.00;90.20
38183;DHT22;23991;52.430;10.586;2022-12-07T05:56:58;4.00;90.20
38183;DHT22;23991;52.430;10.586;2022-12-07T05:59:25;4.00;90.10
38183;DHT22;23991;52.430;10.586;2022-12-07T06:02:01;4.00;90.00
38183;DHT22;23991;52.430;10.586;2022-12-07T06:04:31;3.90;90.00
38183;DHT22;23991;52.430;10.586;2022-12-07T06:06:57;4.00;90.00
38183;DHT22;23991;52.430;10.586;2022-12-07T06:09:24;4.00;89.90
38183;DHT22;23991;52.430;10.586;2022-12-07T06:11:50;3.90;89.90
38183;DHT22;23991;52.430;10.586;2022-12-07T06:14:34;4.00;89.90
38183;DHT22;23991;52.430;10.586;2022-12-07T06:17:00;3.90;89.80
38183;DHT22;23991;52.430;10.586;2022-12-07T06:19:26;3.90;89.80
38183;DHT22;23991;52.430;10.586;2022-12-07T06:21:56;3.90;89.80
38183;DHT22;23991;52.430;10.586;2022-12-07T06:24:22;4.00;89.80
38183;DHT22;23991;52.430;10.586;2022-12-07T06:26:54;3.90;89.80
38183;DHT22;23991;52.430;10.586;2022-12-07T06:29:20;3.90;89.80
38183;DHT22;23991;52.430;10.586;2022-12-07T06:31:46;3.90;89.80
38183;DHT22;23991;52.430;10.586;2022-12-07T06:34:21;3.90;89.80
38183;DHT22;23991;52.430;10.586;2022-12-07T06:36:50;4.00;89.90
38183;DHT22;23991;52.430;10.586;2022-12-07T06:39:25;4.10;89.80
38183;DHT22;23991;52.430;10.586;2022-12-07T06:41:51;4.10;89.70
38183;DHT22;23991;52.430;10.586;2022-12-07T06:44:19;4.10;89.60
38183;DHT22;23991;52.430;10.586;2022-12-07T06:46:45;4.00;89.60
38183;DHT22;23991;52.430;10.586;2022-12-07T06:49:11;4.00;89.60
38183;DHT22;23991;52.430;10.586;2022-12-07T06:51:37;4.00;89.60
38183;DHT22;23991;52.430;10.586;2022-12-07T06:54:09;4.00;89.70
38183;DHT22;23991;52.430;10.586;2022-12-07T06:56:37;4.00;89.70
38183;DHT22;23991;52.430;10.586;2022-12-07T06:59:04;3.90;89.60
38183;DHT22;23991;52.430;10.586;2022-12-07T07:01:31;4.00;89.50
38183;DHT22;23991;52.430;10.586;2022-12-07T07:03:56;3.90;89.50
38183;DHT22;23991;52.430;10.586;2022-12-07T07:06:25;3.90;89.50
38183;DHT22;23991;52.430;10.586;2022-12-07T07:08:50;3.90;89.50
38183;DHT22;23991;52.430;10.586;2022-12-07T07:11:16;3.90;89.50
38183;DHT22;23991;52.430;10.586;2022-12-07T07:13:42;3.90;89.50
38183;DHT22;23991;52.430;10.586;2022-12-07T07:16:08;3.90;89.50
38183;DHT22;23991;52.430;10.586;2022-12-07T07:18:34;4.00;89.40
38183;DHT22;23991;52.430;10.586;2022-12-07T07:21:00;4.10;89.30
38183;DHT22;23991;52.430;10.586;2022-12-07T07:23:27;4.00;89.10
38183;DHT22;23991;52.430;10.586;2022-12-07T07:25:53;4.00;89.10
38183;DHT22;23991;52.430;10.586;2022-12-07T07:28:21;4.00;89.10
38183;DHT22;23991;52.430;10.586;2022-12-07T07:30:47;4.00;89.20
38183;DHT22;23991;52.430;10.586;2022-12-07T07:33:15;4.00;89.10
38183;DHT22;23991;52.430;10.586;2022-12-07T07:35:41;3.90;89.20
38183;DHT22;23991;52.430;10.586;2022-12-07T07:38:07;4.00;89.20
38183;DHT22;23991;52.430;10.586;2022-12-07T07:40:33;3.90;89.10
38183;DHT22;23991;52.430;10.586;2022-12-07T07:43:00;3.90;89.10
38183;DHT22;23991;52.430;10.586;2022-12-07T07:45:27;4.00;89.10
38183;DHT22;23991;52.430;10.586;2022-12-07T07:47:53;4.00;89.10
38183;DHT22;23991;52.430;10.586;2022-12-07T07:50:20;4.10;88.90
38183;DHT22;23991;52.430;10.586;2022-12-07T07:52:47;4.10;88.90
38183;DHT22;23991;52.430;10.586;2022-12-07T07:55:14;4.20;88.90
38183;DHT22;23991;52.430;10.586;2022-12-07T07:57:40;4.30;88.60
38183;DHT22;23991;52.430;10.586;2022-12-07T08:00:13;4.30;88.50
38183;DHT22;23991;52.430;10.586;2022-12-07T08:02:40;4.30;88.20
38183;DHT22;23991;52.430;10.586;2022-12-07T08:05:06;4.40;88.00
38183;DHT22;23991;52.430;10.586;2022-12-07T08:07:32;4.40;88.10
38183;DHT22;23991;52.430;10.586;2022-12-07T08:09:58;4.50;87.90
38183;DHT22;23991;52.430;10.586;2022-12-07T08:12:27;4.60;87.60
38183;DHT22;23991;52.430;10.586;2022-12-07T08:14:59;4.60;87.30
38183;DHT22;23991;52.430;10.586;2022-12-07T08:17:33;4.70;87.20
38183;DHT22;23991;52.430;10.586;2022-12-07T08:20:02;4.80;86.90
38183;DHT22;23991;52.430;10.586;2022-12-07T08:22:28;4.90;86.60
38183;DHT22;23991;52.430;10.586;2022-12-07T08:24:53;4.90;86.40
38183;DHT22;23991;52.430;10.586;2022-12-07T08:27:19;5.10;86.20
38183;DHT22;23991;52.430;10.586;2022-12-07T08:29:44;5.10;85.80
38183;DHT22;23991;52.430;10.586;2022-12-07T08:32:10;5.20;85.20
38183;DHT22;23991;52.430;10.586;2022-12-07T08:34:39;5.20;85.10
38183;DHT22;23991;52.430;10.586;2022-12-07T08:37:08;5.30;84.90
38183;DHT22;23991;52.430;10.586;2022-12-07T08:39:34;5.30;84.50
38183;DHT22;23991;52.430;10.586;2022-12-07T08:42:00;5.40;84.40
38183;DHT22;23991;52.430;10.586;2022-12-07T08:44:25;5.40;84.10
38183;DHT22;23991;52.430;10.586;2022-12-07T08:46:58;5.50;84.10
38183;DHT22;23991;52.430;10.586;2022-12-07T08:49:31;5.60;83.60
38183;DHT22;23991;52.430;10.586;2022-12-07T08:51:58;5.60;83.30
38183;DHT22;23991;52.430;10.586;2022-12-07T08:54:23;5.80;83.00
38183;DHT22;23991;52.430;10.586;2022-12-07T08:56:49;5.80;82.80
38183;DHT22;23991;52.430;10.586;2022-12-07T08:59:18;5.90;82.30
38183;DHT22;23991;52.430;10.586;2022-12-07T09:01:44;5.90;82.20
38183;DHT22;23991;52.430;10.586;2022-12-07T09:04:10;6.00;82.00
38183;DHT22;23991;52.430;10.586;2022-12-07T09:06:36;6.20;81.60
38183;DHT22;23991;52.430;10.586;2022-12-07T09:09:02;6.20;81.10
38183;DHT22;23991;52.430;10.586;2022-12-07T09:11:28;6.20;81.00
38183;DHT22;23991;52.430;10.586;2022-12-07T09:13:54;6.40;80.60
38183;DHT22;23991;52.430;10.586;2022-12-07T09:16:20;6.40;80.20
38183;DHT22;23991;52.430;10.586;2022-12-07T09:18:45;6.60;79.80
38183;DHT22;23991;52.430;10.586;2022-12-07T09:21:11;6.70;79.20
38183;DHT22;23991;52.430;10.586;2022-12-07T09:23:37;6.70;79.10
38183;DHT22;23991;52.430;10.586;2022-12-07T09:26:03;6.80;78.40
38183;DHT22;23991;52.430;10.586;2022-12-07T09:28:33;6.90;78.20
38183;DHT22;23991;52.430;10.586;2022-12-07T09:30:59;6.90;77.90
38183;DHT22;23991;52.430;10.586;2022-12-07T09:33:25;7.00;77.50
38183;DHT22;23991;52.430;10.586;2022-12-07T09:35:51;7.00;77.10
38183;DHT22;23991;52.430;10.586;2022-12-07T09:38:18;7.10;77.20
38183;DHT22;23991;52.430;10.586;2022-12-07T09:40:44;7.20;76.90
38183;DHT22;23991;52.430;10.586;2022-12-07T09:43:18;7.30;76.10
38183;DHT22;23991;52.430;10.586;2022-12-07T09:45:45;7.20;76.30
38183;DHT22;23991;52.430;10.586;2022-12-07T09:48:17;7.30;75.80
38183;DHT22;23991;52.430;10.586;2022-12-07T09:50:47;7.40;75.20
38183;DHT22;23991;52.430;10.586;2022-12-07T09:55:54;7.40;75.00
38183;DHT22;23991;52.430;10.586;2022-12-07T09:58:30;7.50;75.00
38183;DHT22;23991;52.430;10.586;2022-12-07T10:01:05;7.50;75.00
38183;DHT22;23991;52.430;10.586;2022-12-07T10:03:36;7.50;74.90
38183;DHT22;23991;52.430;10.586;2022-12-07T10:06:04;7.60;74.90
38183;DHT22;23991;52.430;10.586;2022-12-07T10:08:31;7.70;74.60
38183;DHT22;23991;52.430;10.586;2022-12-07T10:10:57;7.70;74.00
38183;DHT22;23991;52.430;10.586;2022-12-07T10:16:03;7.50;74.50
38183;DHT22;23991;52.430;10.586;2022-12-07T10:18:37;7.50;74.80
38183;DHT22;23991;52.430;10.586;2022-12-07T10:23:58;7.60;74.50
38183;DHT22;23991;52.430;10.586;2022-12-07T10:26:36;7.70;74.10
38183;DHT22;23991;52.430;10.586;2022-12-07T10:32:05;7.90;73.60
38183;DHT22;23991;52.430;10.586;2022-12-07T10:34:37;8.00;73.40
38183;DHT22;23991;52.430;10.586;2022-12-07T10:39:52;8.10;72.80
38183;DHT22;23991;52.430;10.586;2022-12-07T10:42:30;8.10;72.60
38183;DHT22;23991;52.430;10.586;2022-12-07T10:45:26;8.10;72.50
38183;DHT22;23991;52.430;10.586;2022-12-07T10:48:08;8.10;71.70
38183;DHT22;23991;52.430;10.586;2022-12-07T10:53:45;8.30;71.50
38183;DHT22;23991;52.430;10.586;2022-12-07T10:56:35;8.30;70.70
38183;DHT22;23991;52.430;10.586;2022-12-07T11:16:52;8.20;71.20
38183;DHT22;23991;52.430;10.586;2022-12-07T11:19:32;8.40;70.60
38183;DHT22;23991;52.430;10.586;2022-12-07T11:22:24;8.50;69.80
38183;DHT22;23991;52.430;10.586;2022-12-07T11:30:13;8.50;68.90
38183;DHT22;23991;52.430;10.586;2022-12-07T11:38:06;8.50;68.90
38183;DHT22;23991;52.430;10.586;2022-12-07T11:40:35;8.60;69.20
38183;DHT22;23991;52.430;10.586;2022-12-07T11:43:09;8.60;69.40
38183;DHT22;23991;52.430;10.586;2022-12-07T11:45:42;8.60;69.20
38183;DHT22;23991;52.430;10.586;2022-12-07T11:48:15;8.70;69.10
38183;DHT22;23991;52.430;10.586;2022-12-07T11:50:51;8.60;69.00
38183;DHT22;23991;52.430;10.586;2022-12-07T11:53:23;8.60;68.90
38183;DHT22;23991;52.430;10.586;2022-12-07T12:03:47;8.80;68.60
38183;DHT22;23991;52.430;10.586;2022-12-07T12:06:13;8.90;68.40
38183;DHT22;23991;52.430;10.586;2022-12-07T12:08:49;9.00;68.00
38183;DHT22;23991;52.430;10.586;2022-12-07T12:22:53;9.00;68.20
38183;DHT22;23991;52.430;10.586;2022-12-07T12:25:47;9.00;67.90
38183;DHT22;23991;52.430;10.586;2022-12-07T12:28:39;9.10;67.70
38183;DHT22;23991;52.430;10.586;2022-12-07T12:31:09;9.10;67.40
38183;DHT22;23991;52.430;10.586;2022-12-07T12:33:37;9.00;67.30
38183;DHT22;23991;52.430;10.586;2022-12-07T12:46:59;9.30;65.60
38183;DHT22;23991;52.430;10.586;2022-12-07T12:51:59;9.70;64.10
38183;DHT22;23991;52.430;10.586;2022-12-07T12:57:27;10.00;62.40
38183;DHT22;23991;52.430;10.586;2022-12-07T12:59:58;10.00;62.20
38183;DHT22;23991;52.430;10.586;2022-12-07T13:10:43;10.00;62.00
38183;DHT22;23991;52.430;10.586;2022-12-07T13:15:40;9.90;62.40
38183;DHT22;23991;52.430;10.586;2022-12-07T13:23:35;9.60;62.80
38183;DHT22;23991;52.430;10.586;2022-12-07T13:29:16;9.70;63.30
38183;DHT22;23991;52.430;10.586;2022-12-07T13:31:52;9.60;63.00
38183;DHT22;23991;52.430;10.586;2022-12-07T13:34:37;9.60;63.30
38183;DHT22;23991;52.430;10.586;2022-12-07T13:39:51;9.60;63.30
38183;DHT22;23991;52.430;10.586;2022-12-07T13:42:28;9.40;63.50
38183;DHT22;23991;52.430;10.586;2022-12-07T13:44:56;9.50;63.40
38183;DHT22;23991;52.430;10.586;2022-12-07T13:47:46;9.30;64.10
38183;DHT22;23991;52.430;10.586;2022-12-07T13:50:26;9.20;64.40
38183;DHT22;23991;52.430;10.586;2022-12-07T13:52:56;9.20;64.60
38183;DHT22;23991;52.430;10.586;2022-12-07T13:55:21;9.30;65.00
38183;DHT22;23991;52.430;10.586;2022-12-07T13:57:50;9.30;65.40
38183;DHT22;23991;52.430;10.586;2022-12-07T14:00:21;9.30;65.00
38183;DHT22;23991;52.430;10.586;2022-12-07T14:03:01;9.20;65.40
38183;DHT22;23991;52.430;10.586;2022-12-07T14:05:31;9.20;65.40
38183;DHT22;23991;52.430;10.586;2022-12-07T14:08:00;9.20;65.40
38183;DHT22;23991;52.430;10.586;2022-12-07T14:10:33;9.10;65.50
38183;DHT22;23991;52.430;10.586;2022-12-07T14:13:00;9.10;65.80
38183;DHT22;23991;52.430;10.586;2022-12-07T14:15:32;9.20;65.60
38183;DHT22;23991;52.430;10.586;2022-12-07T14:18:00;9.20;65.60
38183;DHT22;23991;52.430;10.586;2022-12-07T14:20:33;9.10;65.60
38183;DHT22;23991;52.430;10.586;2022-12-07T14:22:59;9.10;66.00
38183;DHT22;23991;52.430;10.586;2022-12-07T14:25:27;9.00;65.90
38183;DHT22;23991;52.430;10.586;2022-12-07T14:28:00;8.90;66.60
38183;DHT22;23991;52.430;10.586;2022-12-07T14:30:29;8.90;67.10
38183;DHT22;23991;52.430;10.586;2022-12-07T14:33:01;8.80;67.30
38183;DHT22;23991;52.430;10.586;2022-12-07T14:35:28;8.70;66.80
38183;DHT22;23991;52.430;10.586;2022-12-07T14:37:54;8.40;66.50
38183;DHT22;23991;52.430;10.586;2022-12-07T14:40:24;8.20;66.00
38183;DHT22;23991;52.430;10.586;2022-12-07T14:43:02;7.90;66.50
38183;DHT22;23991;52.430;10.586;2022-12-07T14:45:29;7.80;67.10
38183;DHT22;23991;52.430;10.586;2022-12-07T14:47:56;7.60;68.00
38183;DHT22;23991;52.430;10.586;2022-12-07T14:50:22;7.60;68.20
38183;DHT22;23991;52.430;10.586;2022-12-07T14:52:55;7.50;68.80
38183;DHT22;23991;52.430;10.586;2022-12-07T14:55:31;7.50;68.30
38183;DHT22;23991;52.430;10.586;2022-12-07T14:57:57;7.30;68.20
38183;DHT22;23991;52.430;10.586;2022-12-07T15:00:25;7.20;68.80
38183;DHT22;23991;52.430;10.586;2022-12-07T15:02:51;7.10;69.10
38183;DHT22;23991;52.430;10.586;2022-12-07T15:05:19;7.10;69.60
38183;DHT22;23991;52.430;10.586;2022-12-07T15:07:45;7.00;69.50
38183;DHT22;23991;52.430;10.586;2022-12-07T15:10:18;7.00;70.00
38183;DHT22;23991;52.430;10.586;2022-12-07T15:12:45;6.90;70.30
38183;DHT22;23991;52.430;10.586;2022-12-07T15:15:11;6.90;71.00
38183;DHT22;23991;52.430;10.586;2022-12-07T15:17:36;6.90;71.20
38183;DHT22;23991;52.430;10.586;2022-12-07T15:20:02;6.80;71.00
38183;DHT22;23991;52.430;10.586;2022-12-07T15:22:29;6.80;71.80
38183;DHT22;23991;52.430;10.586;2022-12-07T15:24:57;6.80;72.00
38183;DHT22;23991;52.430;10.586;2022-12-07T15:27:22;6.70;71.90
38183;DHT22;23991;52.430;10.586;2022-12-07T15:29:48;6.60;72.50
38183;DHT22;23991;52.430;10.586;2022-12-07T15:32:14;6.60;72.80
38183;DHT22;23991;52.430;10.586;2022-12-07T15:34:39;6.70;72.60
38183;DHT22;23991;52.430;10.586;2022-12-07T15:37:05;6.70;73.00
38183;DHT22;23991;52.430;10.586;2022-12-07T15:39:31;6.60;73.20
38183;DHT22;23991;52.430;10.586;2022-12-07T15:42:00;6.60;73.10
38183;DHT22;23991;52.430;10.586;2022-12-07T15:44:26;6.50;73.20
38183;DHT22;23991;52.430;10.586;2022-12-07T15:47:10;6.40;73.80
38183;DHT22;23991;52.430;10.586;2022-12-07T15:49:35;6.30;74.10
38183;DHT22;23991;52.430;10.586;2022-12-07T15:52:01;6.10;74.50
38183;DHT22;23991;52.430;10.586;2022-12-07T15:54:28;6.00;74.70
38183;DHT22;23991;52.430;10.586;2022-12-07T15:56:54;5.90;75.10
38183;DHT22;23991;52.430;10.586;2022-12-07T15:59:20;5.70;75.20
38183;DHT22;23991;52.430;10.586;2022-12-07T16:01:46;5.60;75.10
38183;DHT22;23991;52.430;10.586;2022-12-07T16:04:13;5.50;75.20
38183;DHT22;23991;52.430;10.586;2022-12-07T16:06:42;5.40;76.10
38183;DHT22;23991;52.430;10.586;2022-12-07T16:09:08;5.40;76.00
38183;DHT22;23991;52.430;10.586;2022-12-07T16:11:34;5.40;76.30
38183;DHT22;23991;52.430;10.586;2022-12-07T16:14:00;5.30;76.40
38183;DHT22;23991;52.430;10.586;2022-12-07T16:16:29;5.30;76.60
38183;DHT22;23991;52.430;10.586;2022-12-07T16:18:55;5.20;76.80
38183;DHT22;23991;52.430;10.586;2022-12-07T16:21:21;5.20;77.10
38183;DHT22;23991;52.430;10.586;2022-12-07T16:23:47;5.10;77.20
38183;DHT22;23991;52.430;10.586;2022-12-07T16:26:15;5.00;77.60
38183;DHT22;23991;52.430;10.586;2022-12-07T16:28:42;5.00;77.60
38183;DHT22;23991;52.430;10.586;2022-12-07T16:31:14;5.00;77.80
38183;DHT22;23991;52.430;10.586;2022-12-07T16:33:41;5.00;78.00
38183;DHT22;23991;52.430;10.586;2022-12-07T16:36:09;4.90;78.10
38183;DHT22;23991;52.430;10.586;2022-12-07T16:38:38;4.90;78.40
38183;DHT22;23991;52.430;10.586;2022-12-07T16:41:05;4.90;78.70
38183;DHT22;23991;52.430;10.586;2022-12-07T16:43:32;4.90;78.90
38183;DHT22;23991;52.430;10.586;2022-12-07T16:46:01;4.90;78.90
38183;DHT22;23991;52.430;10.586;2022-12-07T16:48:27;4.90;79.10
38183;DHT22;23991;52.430;10.586;2022-12-07T16:50:53;4.90;79.20
38183;DHT22;23991;52.430;10.586;2022-12-07T16:53:23;4.80;79.20
38183;DHT22;23991;52.430;10.586;2022-12-07T16:55:49;4.70;79.60
38183;DHT22;23991;52.430;10.586;2022-12-07T16:58:15;4.70;79.80
38183;DHT22;23991;52.430;10.586;2022-12-07T17:00:44;4.70;80.00
38183;DHT22;23991;52.430;10.586;2022-12-07T17:03:10;4.60;80.20
38183;DHT22;23991;52.430;10.586;2022-12-07T17:05:38;4.60;80.30
38183;DHT22;23991;52.430;10.586;2022-12-07T17:08:04;4.60;80.50
38183;DHT22;23991;52.430;10.586;2022-12-07T17:10:30;4.60;80.40
38183;DHT22;23991;52.430;10.586;2022-12-07T17:12:57;4.50;80.40
38183;DHT22;23991;52.430;10.586;2022-12-07T17:15:23;4.50;80.50
38183;DHT22;23991;52.430;10.586;2022-12-07T17:17:57;4.50;80.70
38183;DHT22;23991;52.430;10.586;2022-12-07T17:20:25;4.50;81.00
38183;DHT22;23991;52.430;10.586;2022-12-07T17:22:51;4.40;81.00
38183;DHT22;23991;52.430;10.586;2022-12-07T17:25:18;4.40;81.10
38183;DHT22;23991;52.430;10.586;2022-12-07T17:27:45;4.40;81.30
38183;DHT22;23991;52.430;10.586;2022-12-07T17:30:11;4.40;81.40
38183;DHT22;23991;52.430;10.586;2022-12-07T17:32:37;4.30;81.40
38183;DHT22;23991;52.430;10.586;2022-12-07T17:35:03;4.30;81.70
38183;DHT22;23991;52.430;10.586;2022-12-07T17:37:30;4.30;81.70
38183;DHT22;23991;52.430;10.586;2022-12-07T17:39:56;4.20;81.70
38183;DHT22;23991;52.430;10.586;2022-12-07T17:42:23;4.20;81.80
38183;DHT22;23991;52.430;10.586;2022-12-07T17:45:03;4.20;81.80
38183;DHT22;23991;52.430;10.586;2022-12-07T17:47:28;4.20;81.50
38183;DHT22;23991;52.430;10.586;2022-12-07T17:49:54;4.20;81.40
38183;DHT22;23991;52.430;10.586;2022-12-07T17:52:20;4.10;81.40
38183;DHT22;23991;52.430;10.586;2022-12-07T17:55:04;4.10;81.40
38183;DHT22;23991;52.430;10.586;2022-12-07T17:57:30;4.10;81.60
38183;DHT22;23991;52.430;10.586;2022-12-07T17:59:56;4.10;81.90
38183;DHT22;23991;52.430;10.586;2022-12-07T18:02:22;4.10;82.00
38183;DHT22;23991;52.430;10.586;2022-12-07T18:04:47;4.10;82.10